Time;durP1;ratioP1;P1;durP2;ratioP2;P2;SDS_P1;SDS_P2;PMS_P1;PMS_P2;Temp;Humidity;BMP_temperature;BMP_pressure;BME280_temperature;BME280_humidity;BME280_pressure;Samples;Min_cycle;Max_cycle;Signal;HPM_P1;HPM_P2
2021/11/30 00:01:05;;;;;;;10.45;6.03;;;5.00;99.90;;;;;;5075297;28;20201;-78
2021/11/30 00:03:32;;;;;;;8.48;5.28;;;4.90;99.90;;;;;;5076094;28;20251;-78
2021/11/30 00:05:59;;;;;;;8.02;5.90;;;5.10;99.90;;;;;;5096930;22;20308;-79
2021/11/30 00:08:30;;;;;;;9.85;6.18;;;4.90;99.90;;;;;;5069561;28;20226;-80
2021/11/30 00:10:58;;;;;;;6.53;5.20;;;5.00;99.90;;;;;;5069890;28;20194;-78
2021/11/30 00:13:27;;;;;;;10.00;5.40;;;5.00;99.90;;;;;;5069761;28;20217;-79
2021/11/30 00:15:55;;;;;;;11.27;6.03;;;5.00;99.90;;;;;;5061379;28;20725;-80
2021/11/30 00:18:22;;;;;;;7.50;5.22;;;5.20;99.90;;;;;;5059497;28;20225;-80
2021/11/30 00:20:49;;;;;;;10.55;5.40;;;4.90;99.90;;;;;;5065182;28;20232;-79
2021/11/30 00:23:16;;;;;;;8.10;5.13;;;5.00;99.90;;;;;;5071176;28;20563;-79
2021/11/30 00:25:44;;;;;;;7.35;4.40;;;4.80;99.90;;;;;;5073847;28;20221;-79
2021/11/30 00:28:11;;;;;;;9.55;5.20;;;5.00;99.90;;;;;;5070038;28;20230;-79
2021/11/30 00:30:40;;;;;;;11.20;5.35;;;4.80;99.90;;;;;;5066080;28;20202;-79
2021/11/30 00:33:08;;;;;;;7.13;4.90;;;4.90;99.90;;;;;;5061264;28;20206;-81
2021/11/30 00:35:35;;;;;;;7.45;4.80;;;4.80;99.90;;;;;;5066606;28;20301;-79
2021/11/30 00:38:03;;;;;;;9.85;5.45;;;4.70;99.90;;;;;;5071610;28;20224;-79
2021/11/30 00:40:30;;;;;;;7.13;4.95;;;4.70;99.90;;;;;;5064833;28;20209;-79
2021/11/30 00:42:59;;;;;;;8.40;4.85;;;4.70;99.90;;;;;;5062609;28;20210;-80
2021/11/30 00:45:35;;;;;;;7.15;4.40;;;4.60;99.90;;;;;;5061833;28;20539;-80
2021/11/30 00:48:07;;;;;;;9.38;5.05;;;4.60;99.90;;;;;;5061251;28;20213;-80
2021/11/30 00:50:36;;;;;;;7.72;4.05;;;4.60;99.90;;;;;;5061210;28;20252;-79
2021/11/30 00:53:04;;;;;;;7.68;4.70;;;4.50;99.90;;;;;;5060877;28;20213;-79
2021/11/30 00:55:31;;;;;;;9.05;4.38;;;4.70;99.90;;;;;;5061442;28;20225;-79
2021/11/30 00:57:59;;;;;;;7.75;4.85;;;4.30;99.90;;;;;;5061084;28;20206;-79
2021/11/30 01:00:26;;;;;;;6.50;4.55;;;4.80;99.90;;;;;;5062443;28;20225;-79
2021/11/30 01:02:53;;;;;;;7.00;4.32;;;4.70;99.90;;;;;;5060699;28;20216;-79
2021/11/30 01:05:20;;;;;;;5.65;3.78;;;4.80;99.90;;;;;;5059818;28;20206;-79
2021/11/30 01:07:47;;;;;;;5.75;4.20;;;4.80;99.90;;;;;;5059351;28;20237;-78
2021/11/30 01:10:16;;;;;;;5.60;3.75;;;4.80;99.90;;;;;;5059166;28;20301;-84
2021/11/30 01:12:43;;;;;;;7.55;4.35;;;4.70;99.90;;;;;;5055490;28;20682;-78
2021/11/30 01:15:15;;;;;;;5.40;3.60;;;4.80;99.90;;;;;;5055915;28;20190;-77
2021/11/30 01:17:43;;;;;;;6.70;4.53;;;4.60;99.90;;;;;;5054768;28;20726;-78
2021/11/30 01:20:11;;;;;;;6.90;3.70;;;4.70;99.90;;;;;;5061046;28;20206;-78
2021/11/30 01:22:38;;;;;;;6.03;3.65;;;4.80;99.90;;;;;;5060467;28;20213;-78
2021/11/30 01:25:06;;;;;;;6.10;3.53;;;4.80;99.90;;;;;;5055191;28;20210;-79
2021/11/30 01:27:33;;;;;;;5.20;3.45;;;4.90;99.90;;;;;;5061371;28;20577;-79
2021/11/30 01:30:00;;;;;;;8.40;3.38;;;4.80;99.90;;;;;;5062090;28;20248;-78
2021/11/30 01:32:28;;;;;;;5.50;3.53;;;4.90;99.90;;;;;;5056873;28;20694;-78
2021/11/30 01:34:55;;;;;;;4.93;3.60;;;4.80;99.90;;;;;;5056159;28;20210;-78
2021/11/30 01:37:22;;;;;;;6.50;4.13;;;4.80;99.90;;;;;;5057092;28;20234;-78
2021/11/30 01:39:49;;;;;;;5.95;3.53;;;4.80;99.90;;;;;;5057470;28;20213;-79
2021/11/30 01:42:16;;;;;;;8.00;3.83;;;4.90;99.90;;;;;;5058491;28;20206;-78
2021/11/30 01:44:49;;;;;;;7.70;3.47;;;4.90;99.90;;;;;;5057090;28;20242;-78
2021/11/30 01:47:36;;;;;;;6.75;3.70;;;4.80;99.90;;;;;;5058659;28;20226;-78
2021/11/30 01:50:07;;;;;;;7.18;3.40;;;5.00;99.90;;;;;;5056705;28;20218;-79
2021/11/30 01:52:34;;;;;;;6.47;3.47;;;4.80;99.90;;;;;;5061088;28;20289;-79
2021/11/30 01:55:01;;;;;;;4.85;2.90;;;4.90;99.90;;;;;;5055501;28;20206;-78
2021/11/30 01:57:28;;;;;;;6.88;3.03;;;5.00;99.90;;;;;;5055536;28;20238;-78
2021/11/30 01:59:56;;;;;;;6.50;3.60;;;5.10;99.90;;;;;;5056039;28;20197;-79
2021/11/30 02:02:24;;;;;;;5.63;3.90;;;5.10;99.90;;;;;;5055414;28;20198;-79
2021/11/30 02:04:51;;;;;;;4.70;2.55;;;5.10;99.90;;;;;;5055854;28;20225;-79
2021/11/30 02:07:19;;;;;;;5.18;2.88;;;5.10;99.90;;;;;;5055131;28;20758;-78
2021/11/30 02:09:46;;;;;;;6.00;3.38;;;5.20;99.90;;;;;;5053951;28;20225;-78
2021/11/30 02:12:13;;;;;;;4.93;2.95;;;5.10;99.90;;;;;;5054543;28;20212;-78
2021/11/30 02:14:45;;;;;;;4.70;2.58;;;4.90;99.90;;;;;;5054882;28;20213;-79
2021/11/30 02:17:13;;;;;;;7.43;3.05;;;4.90;99.90;;;;;;5054761;28;20226;-77
2021/11/30 02:19:46;;;;;;;6.22;3.40;;;5.00;99.90;;;;;;5056696;28;20201;-78
2021/11/30 02:22:14;;;;;;;5.00;2.85;;;4.80;99.90;;;;;;5057304;28;20249;-78
2021/11/30 02:24:41;;;;;;;8.68;2.80;;;4.90;99.90;;;;;;5054289;28;20217;-78
2021/11/30 02:27:08;;;;;;;7.68;2.85;;;4.80;99.90;;;;;;5053899;28;20321;-78
2021/11/30 02:29:35;;;;;;;8.13;3.30;;;5.00;99.90;;;;;;5054863;28;20233;-77
2021/11/30 02:32:02;;;;;;;5.05;2.78;;;5.20;99.90;;;;;;5055729;28;20206;-79
2021/11/30 02:34:29;;;;;;;7.32;3.38;;;4.90;99.90;;;;;;5054888;28;20210;-79
2021/11/30 02:37:05;;;;;;;4.45;2.67;;;5.00;99.90;;;;;;5056643;28;20347;-78
2021/11/30 02:39:34;;;;;;;8.15;3.38;;;5.00;99.90;;;;;;5055689;28;20236;-79
2021/11/30 02:42:04;;;;;;;6.32;3.00;;;4.90;99.90;;;;;;5058707;28;20245;-77
2021/11/30 02:44:32;;;;;;;7.13;3.10;;;4.70;99.90;;;;;;5055070;28;20298;-78
2021/11/30 02:47:01;;;;;;;5.30;2.17;;;5.20;99.90;;;;;;5053975;28;20226;-78
2021/11/30 02:49:30;;;;;;;4.28;2.38;;;5.10;99.90;;;;;;5053875;28;20222;-78
2021/11/30 02:52:05;;;;;;;4.25;2.53;;;5.10;99.90;;;;;;5055164;28;20206;-79
2021/11/30 02:54:32;;;;;;;5.43;2.85;;;5.00;99.90;;;;;;5058205;28;20201;-78
2021/11/30 02:57:02;;;;;;;9.65;3.03;;;4.90;99.90;;;;;;5058828;28;20225;-78
2021/11/30 02:59:33;;;;;;;5.57;2.10;;;4.80;99.90;;;;;;5056265;28;20213;-78
2021/11/30 03:02:02;;;;;;;5.20;2.38;;;4.80;99.90;;;;;;5054907;28;20561;-78
2021/11/30 03:04:30;;;;;;;5.28;2.47;;;4.90;99.90;;;;;;5054519;28;20202;-78
2021/11/30 03:06:59;;;;;;;6.18;2.33;;;4.70;99.90;;;;;;5054019;28;20252;-78
2021/11/30 03:09:26;;;;;;;6.70;2.75;;;4.80;99.90;;;;;;5055062;28;20233;-78
2021/11/30 03:11:54;;;;;;;5.70;2.80;;;4.70;99.90;;;;;;5055418;28;20209;-78
2021/11/30 03:14:21;;;;;;;4.10;2.50;;;4.50;99.90;;;;;;5056933;28;20301;-78
2021/11/30 03:16:48;;;;;;;5.20;2.25;;;4.70;99.90;;;;;;5058346;28;20549;-80
2021/11/30 03:19:16;;;;;;;8.10;2.38;;;4.60;99.90;;;;;;5054793;28;20554;-79
2021/11/30 03:21:44;;;;;;;5.15;2.35;;;4.40;99.90;;;;;;5053455;28;20214;-78
2021/11/30 03:24:12;;;;;;;5.47;2.30;;;4.50;99.90;;;;;;5054220;28;20206;-78
2021/11/30 03:26:39;;;;;;;4.65;2.47;;;4.50;99.90;;;;;;5055315;28;20694;-78
2021/11/30 03:35:04;;;;;;;5.40;2.13;;;4.40;99.90;;;;;;5055784;28;20213;-79
2021/11/30 03:37:32;;;;;;;6.50;2.55;;;4.60;99.90;;;;;;5060994;28;20216;-80
2021/11/30 03:40:00;;;;;;;7.10;2.60;;;4.60;99.90;;;;;;5067643;28;20202;-80
2021/11/30 03:42:27;;;;;;;3.63;1.95;;;4.50;99.90;;;;;;5060747;28;20237;-80
2021/11/30 03:44:55;;;;;;;5.45;2.30;;;4.40;99.90;;;;;;5081276;22;20240;-78
2021/11/30 03:47:23;;;;;;;7.15;2.00;;;4.50;99.90;;;;;;5057705;28;20202;-78
2021/11/30 03:49:50;;;;;;;7.20;2.00;;;4.60;99.90;;;;;;5057027;28;20237;-79
2021/11/30 03:52:16;;;;;;;3.72;2.05;;;4.60;99.90;;;;;;5057435;28;20286;-78
2021/11/30 03:54:43;;;;;;;6.25;1.52;;;4.70;99.90;;;;;;5057635;28;20237;-78
2021/11/30 03:57:12;;;;;;;4.22;2.33;;;4.50;99.90;;;;;;5057178;28;20190;-77
2021/11/30 03:59:38;;;;;;;4.10;1.90;;;4.70;99.90;;;;;;5057110;28;20206;-78
2021/11/30 04:02:05;;;;;;;4.45;2.10;;;4.50;99.90;;;;;;5060792;28;20399;-78
2021/11/30 04:04:35;;;;;;;7.43;2.67;;;4.60;99.90;;;;;;5070362;28;20230;-78
2021/11/30 04:07:01;;;;;;;3.42;1.90;;;4.50;99.90;;;;;;5058826;28;20554;-78
2021/11/30 04:09:28;;;;;;;6.53;2.22;;;4.50;99.90;;;;;;5057706;28;20229;-79
2021/11/30 04:11:55;;;;;;;5.10;2.30;;;4.70;99.90;;;;;;5057970;28;20214;-78
2021/11/30 04:14:24;;;;;;;6.38;2.60;;;4.80;99.90;;;;;;5057597;28;20240;-79
2021/11/30 04:16:51;;;;;;;8.13;2.13;;;4.50;99.90;;;;;;5059301;28;20210;-79
2021/11/30 04:19:17;;;;;;;9.65;2.30;;;4.60;99.90;;;;;;5058074;28;20208;-79
2021/11/30 04:21:44;;;;;;;6.70;2.40;;;4.60;99.90;;;;;;5058229;28;20311;-79
2021/11/30 04:24:11;;;;;;;4.68;1.83;;;4.60;99.90;;;;;;5061205;28;20324;-79
2021/11/30 04:26:38;;;;;;;5.07;1.98;;;4.60;99.90;;;;;;5069438;28;20213;-79
2021/11/30 04:29:05;;;;;;;4.53;2.88;;;4.70;99.90;;;;;;5061976;28;20218;-78
2021/11/30 04:31:35;;;;;;;6.50;2.63;;;4.50;99.90;;;;;;5062576;28;20206;-79
2021/11/30 04:34:03;;;;;;;5.55;2.42;;;4.50;99.90;;;;;;5060789;28;20226;-79
2021/11/30 04:36:30;;;;;;;4.95;2.22;;;4.50;99.90;;;;;;5060352;28;20248;-78
2021/11/30 04:38:57;;;;;;;4.38;2.35;;;4.60;99.90;;;;;;5063860;28;20206;-78
2021/11/30 04:41:24;;;;;;;5.57;2.75;;;4.50;99.90;;;;;;5063257;28;20212;-79
2021/11/30 04:43:51;;;;;;;5.68;2.00;;;4.30;99.90;;;;;;5062155;28;20260;-79
2021/11/30 04:46:21;;;;;;;4.97;2.17;;;4.40;99.90;;;;;;5060692;28;20206;-79
2021/11/30 04:48:56;;;;;;;4.28;2.53;;;4.50;99.90;;;;;;5060027;28;20189;-78
2021/11/30 04:51:23;;;;;;;9.80;3.05;;;4.30;99.90;;;;;;5064908;28;20190;-78
2021/11/30 04:53:51;;;;;;;4.30;2.40;;;4.40;99.90;;;;;;5061453;28;20230;-79
2021/11/30 04:56:18;;;;;;;4.85;2.80;;;4.20;99.90;;;;;;5065843;28;20206;-79
2021/11/30 04:58:45;;;;;;;5.00;2.70;;;4.40;99.90;;;;;;5065271;28;20682;-79
2021/11/30 05:01:12;;;;;;;6.57;3.10;;;4.50;99.90;;;;;;5057945;28;20208;-78
2021/11/30 05:03:40;;;;;;;6.65;2.28;;;4.20;99.90;;;;;;5061370;28;20222;-78
2021/11/30 05:06:08;;;;;;;5.82;2.70;;;4.40;99.90;;;;;;5065942;28;20297;-77
2021/11/30 05:08:35;;;;;;;5.25;2.00;;;4.30;99.90;;;;;;5062660;28;20210;-79
2021/11/30 05:11:02;;;;;;;8.32;2.40;;;4.40;99.90;;;;;;5058494;28;20229;-78
2021/11/30 05:13:29;;;;;;;5.45;2.30;;;4.30;99.90;;;;;;5056617;28;20249;-78
2021/11/30 05:15:55;;;;;;;5.50;2.70;;;4.20;99.90;;;;;;5056425;28;20321;-78
2021/11/30 05:18:23;;;;;;;5.78;2.70;;;4.30;99.90;;;;;;5056385;28;20202;-79
2021/11/30 05:20:50;;;;;;;7.72;2.67;;;4.40;99.90;;;;;;5057342;28;20205;-78
2021/11/30 05:23:27;;;;;;;8.35;2.47;;;4.30;99.90;;;;;;5059698;28;20230;-79
2021/11/30 05:25:54;;;;;;;4.95;2.50;;;4.40;99.90;;;;;;5059612;28;20194;-78
2021/11/30 05:28:22;;;;;;;3.67;2.53;;;4.40;99.90;;;;;;5064837;28;20556;-80
2021/11/30 05:30:49;;;;;;;8.05;2.70;;;4.40;99.90;;;;;;5055899;28;20320;-77
2021/11/30 05:33:16;;;;;;;5.55;2.80;;;4.40;99.90;;;;;;5055536;28;20295;-78
2021/11/30 05:35:43;;;;;;;6.05;2.42;;;4.10;99.90;;;;;;5057402;28;20658;-78
2021/11/30 05:38:10;;;;;;;7.60;3.28;;;4.40;99.90;;;;;;5058469;28;20210;-78
2021/11/30 05:40:40;;;;;;;5.63;2.97;;;4.30;99.90;;;;;;5058711;28;20301;-78
2021/11/30 05:43:07;;;;;;;5.25;2.60;;;4.30;99.90;;;;;;5056537;28;20234;-78
2021/11/30 05:45:34;;;;;;;4.70;2.90;;;4.30;99.90;;;;;;5056572;28;20281;-78
2021/11/30 05:48:01;;;;;;;5.85;3.38;;;4.20;99.90;;;;;;5055466;28;20324;-79
2021/11/30 05:50:28;;;;;;;5.00;3.38;;;4.00;99.90;;;;;;5055464;28;20225;-78
2021/11/30 05:52:54;;;;;;;7.05;3.35;;;4.20;99.90;;;;;;5054896;28;20233;-77
2021/11/30 05:55:21;;;;;;;6.28;3.60;;;4.20;99.90;;;;;;5055588;28;20210;-77
2021/11/30 05:57:49;;;;;;;6.22;3.78;;;4.10;99.90;;;;;;5055998;28;20201;-77
2021/11/30 06:00:17;;;;;;;10.00;4.00;;;4.10;99.90;;;;;;5055851;28;20209;-79
2021/11/30 06:02:54;;;;;;;5.63;3.92;;;4.10;99.90;;;;;;5057960;28;20273;-78
2021/11/30 06:05:21;;;;;;;5.35;3.33;;;4.00;99.90;;;;;;5059640;28;20220;-79
2021/11/30 06:07:48;;;;;;;5.05;3.30;;;4.00;99.90;;;;;;5058318;28;20206;-78
2021/11/30 06:10:15;;;;;;;5.22;3.10;;;4.20;99.90;;;;;;5058618;28;20233;-79
2021/11/30 06:12:42;;;;;;;6.85;3.05;;;4.10;99.90;;;;;;5055352;28;20206;-79
2021/11/30 06:15:11;;;;;;;5.25;3.03;;;4.10;99.90;;;;;;5054979;28;20206;-77
2021/11/30 06:17:38;;;;;;;6.55;2.92;;;4.10;99.90;;;;;;5056206;28;20210;-79
2021/11/30 06:20:06;;;;;;;5.82;3.22;;;4.20;99.90;;;;;;5056127;28;20206;-78
2021/11/30 06:22:33;;;;;;;7.07;3.80;;;3.90;99.90;;;;;;5056526;28;20205;-78
2021/11/30 06:25:02;;;;;;;5.63;3.65;;;4.10;99.90;;;;;;5055922;28;20216;-78
2021/11/30 06:27:29;;;;;;;6.00;4.00;;;4.00;99.90;;;;;;5055884;28;20244;-78
2021/11/30 06:29:55;;;;;;;7.40;3.70;;;4.00;99.90;;;;;;5054773;28;20226;-78
2021/11/30 06:32:24;;;;;;;8.80;4.43;;;3.90;99.90;;;;;;5055125;28;20205;-79
2021/11/30 06:34:51;;;;;;;6.00;3.15;;;3.90;99.90;;;;;;5055555;28;20233;-79
2021/11/30 06:37:18;;;;;;;5.95;3.90;;;3.70;99.90;;;;;;5056174;28;20206;-78
2021/11/30 06:39:45;;;;;;;6.15;3.72;;;3.80;99.90;;;;;;5057594;28;20208;-78
2021/11/30 06:42:12;;;;;;;5.60;3.75;;;3.80;99.90;;;;;;5056920;28;20206;-78
2021/11/30 06:44:39;;;;;;;7.00;3.55;;;3.80;99.90;;;;;;5057510;28;20233;-79
2021/11/30 06:47:06;;;;;;;6.05;3.45;;;3.80;99.90;;;;;;5059504;28;20213;-78
2021/11/30 06:49:34;;;;;;;7.70;3.92;;;3.70;99.90;;;;;;5057741;28;20206;-79
2021/11/30 06:52:01;;;;;;;9.45;4.15;;;3.60;99.90;;;;;;5061204;28;20202;-78
2021/11/30 06:54:28;;;;;;;6.97;4.32;;;3.70;99.90;;;;;;5064938;28;20233;-79
2021/11/30 06:56:55;;;;;;;6.90;4.18;;;3.70;99.90;;;;;;5064844;28;20217;-79
2021/11/30 06:59:23;;;;;;;6.95;3.90;;;3.90;99.90;;;;;;5060898;28;20202;-79
2021/11/30 07:01:50;;;;;;;7.68;4.05;;;3.90;99.90;;;;;;5057847;28;20206;-79
2021/11/30 07:04:18;;;;;;;7.80;3.85;;;3.90;99.90;;;;;;5072621;28;20234;-79
2021/11/30 07:06:57;;;;;;;6.95;3.42;;;3.70;99.90;;;;;;5059141;28;20194;-80
2021/11/30 07:09:34;;;;;;;6.72;4.00;;;3.80;99.90;;;;;;5067100;28;20646;-80
2021/11/30 07:12:09;;;;;;;6.20;3.10;;;3.70;99.90;;;;;;5069409;28;20209;-79
2021/11/30 07:14:36;;;;;;;5.65;3.40;;;3.80;99.90;;;;;;5058117;28;20229;-79
2021/11/30 07:17:03;;;;;;;4.70;3.25;;;3.80;99.90;;;;;;5057528;28;20312;-80
2021/11/30 07:19:32;;;;;;;5.72;3.63;;;3.90;99.90;;;;;;5069555;28;20198;-79
2021/11/30 07:22:00;;;;;;;7.50;3.33;;;3.90;99.90;;;;;;5059596;28;20534;-78
2021/11/30 07:24:27;;;;;;;5.35;3.30;;;3.70;99.90;;;;;;5057590;28;20236;-79
2021/11/30 07:26:54;;;;;;;6.70;3.40;;;3.80;99.90;;;;;;5055861;28;20292;-79
2021/11/30 07:29:20;;;;;;;5.25;3.20;;;3.80;99.90;;;;;;5059490;28;20315;-79
2021/11/30 07:31:49;;;;;;;5.30;2.85;;;3.90;99.90;;;;;;5064380;28;20230;-84
2021/11/30 07:34:16;;;;;;;5.40;2.47;;;3.90;99.90;;;;;;5058982;28;20229;-80
2021/11/30 07:36:43;;;;;;;6.07;2.90;;;3.90;99.90;;;;;;5062605;28;20206;-80
2021/11/30 07:39:12;;;;;;;5.32;2.90;;;4.00;99.90;;;;;;5063280;28;20206;-80
2021/11/30 07:41:39;;;;;;;5.78;2.65;;;4.00;99.90;;;;;;5063789;28;20584;-80
2021/11/30 07:44:07;;;;;;;5.13;3.42;;;4.00;99.90;;;;;;5063196;28;20241;-80
2021/11/30 07:46:33;;;;;;;3.95;2.35;;;4.00;99.90;;;;;;5064415;28;20220;-79
2021/11/30 07:49:00;;;;;;;6.32;2.67;;;4.00;99.90;;;;;;5064429;28;20236;-80
2021/11/30 07:51:27;;;;;;;5.00;2.95;;;4.00;99.90;;;;;;5065671;28;20681;-80
2021/11/30 07:53:54;;;;;;;5.10;3.15;;;4.00;99.90;;;;;;5064161;28;20612;-80
2021/11/30 07:56:22;;;;;;;6.70;2.63;;;4.00;99.90;;;;;;5063950;28;20229;-80
2021/11/30 07:58:49;;;;;;;5.53;2.63;;;4.00;99.90;;;;;;5063348;28;20228;-80
2021/11/30 08:01:16;;;;;;;4.32;2.10;;;3.80;99.90;;;;;;5063207;28;20646;-80
2021/11/30 08:03:43;;;;;;;4.32;2.60;;;3.90;99.90;;;;;;5062561;28;20343;-79
2021/11/30 08:06:10;;;;;;;3.90;2.20;;;4.00;99.90;;;;;;5061574;28;20286;-80
2021/11/30 08:08:37;;;;;;;4.47;2.50;;;4.10;99.90;;;;;;5063404;28;20217;-80
2021/11/30 08:11:04;;;;;;;4.05;2.88;;;3.90;99.90;;;;;;5064196;28;20229;-81
2021/11/30 08:13:32;;;;;;;5.00;2.20;;;3.90;99.90;;;;;;5065950;28;20240;-80
2021/11/30 08:15:59;;;;;;;6.45;2.55;;;4.20;99.90;;;;;;5064761;28;20210;-81
2021/11/30 08:18:27;;;;;;;4.90;2.35;;;4.00;99.90;;;;;;5064096;28;20206;-80
2021/11/30 08:20:55;;;;;;;5.65;2.50;;;4.10;99.90;;;;;;5056343;28;20237;-78
2021/11/30 08:23:22;;;;;;;5.05;2.38;;;4.20;99.90;;;;;;5054722;28;20312;-79
2021/11/30 08:25:49;;;;;;;5.30;2.20;;;4.30;99.90;;;;;;5058300;28;20231;-79
2021/11/30 08:28:15;;;;;;;4.78;2.25;;;4.00;99.90;;;;;;5061958;28;20218;-79
2021/11/30 08:30:44;;;;;;;3.97;2.03;;;4.20;99.90;;;;;;5061892;28;20769;-79
2021/11/30 08:33:11;;;;;;;5.15;2.10;;;4.10;99.90;;;;;;5059780;28;20240;-79
2021/11/30 08:35:38;;;;;;;6.88;2.33;;;4.20;99.90;;;;;;5060251;28;20214;-79
2021/11/30 08:38:05;;;;;;;5.10;2.33;;;4.10;99.90;;;;;;5060484;28;20221;-79
2021/11/30 08:40:32;;;;;;;4.35;2.25;;;4.30;99.90;;;;;;5063149;28;20198;-79
2021/11/30 08:42:59;;;;;;;5.13;2.10;;;4.40;99.90;;;;;;5059671;28;20263;-79
2021/11/30 08:45:26;;;;;;;4.75;2.45;;;4.30;99.90;;;;;;5060276;28;20194;-79
2021/11/30 08:47:54;;;;;;;5.97;2.38;;;4.30;99.90;;;;;;5060320;28;20210;-79
2021/11/30 08:50:21;;;;;;;5.85;2.40;;;4.40;99.90;;;;;;5059611;28;20232;-79
2021/11/30 08:52:49;;;;;;;4.75;2.15;;;4.50;99.90;;;;;;5060442;28;20294;-79
2021/11/30 08:55:16;;;;;;;5.03;2.47;;;4.40;99.90;;;;;;5059569;28;20202;-79
2021/11/30 08:57:44;;;;;;;4.25;2.13;;;4.50;99.90;;;;;;5059834;28;20210;-79
2021/11/30 09:00:14;;;;;;;5.30;2.28;;;4.50;99.90;;;;;;5059287;28;20202;-80
2021/11/30 09:02:41;;;;;;;5.93;2.20;;;4.60;99.90;;;;;;5063888;28;20730;-79
2021/11/30 09:05:10;;;;;;;3.35;1.70;;;4.70;99.90;;;;;;5071757;28;20273;-80
2021/11/30 09:07:37;;;;;;;6.10;1.92;;;4.50;99.90;;;;;;5072823;28;20209;-80
2021/11/30 09:10:06;;;;;;;3.60;1.80;;;4.70;99.90;;;;;;5066944;28;20206;-81
2021/11/30 09:12:33;;;;;;;5.72;2.10;;;4.60;99.90;;;;;;5062986;28;20225;-81
2021/11/30 09:15:00;;;;;;;3.92;2.20;;;4.70;99.90;;;;;;5063221;28;20206;-81
2021/11/30 09:17:27;;;;;;;4.78;1.90;;;4.80;99.90;;;;;;5066506;28;20285;-80
2021/11/30 09:19:54;;;;;;;3.40;1.90;;;4.60;99.90;;;;;;5064876;28;20215;-79
2021/11/30 09:22:22;;;;;;;4.00;1.90;;;4.90;99.90;;;;;;5064210;28;20206;-77
2021/11/30 09:24:49;;;;;;;3.70;2.05;;;4.80;99.90;;;;;;5064809;28;20698;-80
2021/11/30 09:27:16;;;;;;;4.05;1.73;;;4.70;99.90;;;;;;5067476;28;20292;-80
2021/11/30 09:29:43;;;;;;;3.85;1.65;;;4.90;99.90;;;;;;5067913;28;20296;-80
2021/11/30 09:32:11;;;;;;;4.45;1.98;;;4.90;99.90;;;;;;5069678;28;20225;-82
2021/11/30 09:34:38;;;;;;;3.80;2.05;;;4.70;99.90;;;;;;5071431;28;20294;-83
2021/11/30 09:37:07;;;;;;;3.10;1.52;;;4.60;99.90;;;;;;5071922;28;20233;-80
2021/11/30 09:39:36;;;;;;;3.67;2.10;;;4.70;99.90;;;;;;5069726;28;20208;-81
2021/11/30 09:42:03;;;;;;;3.45;1.38;;;4.70;99.90;;;;;;5066386;28;20293;-81
2021/11/30 09:47:01;;;;;;;3.38;1.42;;;5.00;99.90;;;;;;5086276;22;20713;-82
2021/11/30 09:49:28;;;;;;;3.47;1.50;;;4.90;99.90;;;;;;5063123;28;20301;-82
2021/11/30 09:51:55;;;;;;;3.38;1.80;;;4.90;99.90;;;;;;5065175;28;20231;-85
2021/11/30 09:54:22;;;;;;;6.00;1.50;;;5.00;99.90;;;;;;5066998;28;20202;-83
2021/11/30 09:56:50;;;;;;;3.60;1.70;;;5.00;99.90;;;;;;5075758;28;20248;-83
2021/11/30 09:59:17;;;;;;;2.92;1.52;;;4.90;99.90;;;;;;5069176;28;20193;-83
2021/11/30 10:01:44;;;;;;;3.38;1.58;;;5.00;99.90;;;;;;5070368;28;20198;-86
2021/11/30 10:04:14;;;;;;;3.60;1.35;;;4.80;99.90;;;;;;5060018;28;20202;-85
2021/11/30 10:06:41;;;;;;;4.13;1.40;;;4.90;99.90;;;;;;5065666;28;20221;-85
2021/11/30 10:09:17;;;;;;;2.80;1.40;;;5.00;99.90;;;;;;5072762;28;20237;-85
2021/11/30 10:11:44;;;;;;;3.42;1.55;;;5.00;99.90;;;;;;5060840;28;20210;-84
2021/11/30 10:14:20;;;;;;;3.88;1.80;;;4.90;99.90;;;;;;5063524;28;20569;-84
2021/11/30 10:17:10;;;;;;;3.33;1.23;;;5.00;99.90;;;;;;5068292;28;20256;-85
2021/11/30 10:19:37;;;;;;;4.05;1.65;;;4.90;99.90;;;;;;5060779;28;20206;-83
2021/11/30 10:22:04;;;;;;;2.92;1.17;;;5.10;99.90;;;;;;5059196;28;20214;-84
2021/11/30 10:24:31;;;;;;;4.00;1.73;;;4.90;99.90;;;;;;5059322;28;20638;-84
2021/11/30 10:26:59;;;;;;;3.08;1.20;;;5.30;99.90;;;;;;5059696;28;20240;-82
2021/11/30 10:29:30;;;;;;;2.90;1.10;;;5.10;99.90;;;;;;5059938;28;20206;-82
2021/11/30 10:31:57;;;;;;;3.40;1.17;;;5.00;99.90;;;;;;5059157;28;20222;-84
2021/11/30 10:34:28;;;;;;;3.47;1.20;;;5.00;99.90;;;;;;5063152;28;20213;-84
2021/11/30 10:36:57;;;;;;;4.18;1.80;;;4.90;99.90;;;;;;5065963;28;20226;-84
2021/11/30 10:39:26;;;;;;;3.58;1.10;;;5.00;99.90;;;;;;5062457;28;20256;-84
2021/11/30 10:42:11;;;;;;;3.15;1.35;;;4.80;99.90;;;;;;5061068;28;20217;-83
2021/11/30 10:44:39;;;;;;;2.63;1.00;;;4.90;99.90;;;;;;5058516;28;20201;-85
2021/11/30 10:47:11;;;;;;;2.72;1.20;;;5.00;99.90;;;;;;5059229;28;20206;-84
2021/11/30 10:49:46;;;;;;;2.40;0.85;;;4.90;99.90;;;;;;5058486;28;20221;-84
2021/11/30 10:52:16;;;;;;;4.15;1.10;;;4.90;99.90;;;;;;5056623;28;20210;-85
2021/11/30 10:54:43;;;;;;;3.95;1.38;;;5.00;99.90;;;;;;5056668;28;20705;-85
2021/11/30 10:57:10;;;;;;;3.60;1.40;;;4.80;99.90;;;;;;5058122;28;20213;-85
2021/11/30 10:59:37;;;;;;;2.85;1.25;;;4.80;99.90;;;;;;5058725;28;20584;-84
2021/11/30 11:02:05;;;;;;;2.72;1.00;;;4.90;99.90;;;;;;5069693;28;20206;-83
2021/11/30 11:04:34;;;;;;;4.25;1.48;;;4.70;99.90;;;;;;5061046;28;20397;-83
2021/11/30 11:07:09;;;;;;;2.70;1.13;;;4.90;99.90;;;;;;5055624;28;20230;-84
2021/11/30 11:09:42;;;;;;;4.15;1.35;;;5.10;99.90;;;;;;5056876;28;20217;-84
2021/11/30 11:12:12;;;;;;;4.30;1.52;;;5.00;99.90;;;;;;5057250;28;20308;-84
2021/11/30 11:14:47;;;;;;;4.55;1.70;;;5.10;99.90;;;;;;5057718;28;20214;-85
2021/11/30 11:17:29;;;;;;;4.50;1.35;;;5.10;99.90;;;;;;5062848;28;20231;-85
2021/11/30 11:19:56;;;;;;;3.08;1.02;;;5.00;99.90;;;;;;5059047;28;20190;-84
2021/11/30 11:22:25;;;;;;;3.03;1.30;;;5.00;99.90;;;;;;5059393;28;20221;-85
2021/11/30 11:24:56;;;;;;;4.05;1.27;;;5.00;99.90;;;;;;5059534;28;20206;-84
2021/11/30 11:27:30;;;;;;;2.88;1.08;;;5.10;99.90;;;;;;5066330;28;20217;-82
2021/11/30 11:29:57;;;;;;;3.05;1.30;;;5.10;99.90;;;;;;5067679;28;20190;-85
2021/11/30 11:32:24;;;;;;;3.53;1.30;;;5.10;99.90;;;;;;5062730;28;20300;-85
2021/11/30 11:34:53;;;;;;;4.38;1.48;;;5.30;99.90;;;;;;5061681;28;20214;-84
2021/11/30 11:37:20;;;;;;;3.22;1.10;;;5.20;99.90;;;;;;5062170;28;20232;-85
2021/11/30 11:39:50;;;;;;;2.88;0.90;;;5.00;99.90;;;;;;5060547;28;20221;-85
2021/11/30 11:42:20;;;;;;;3.95;1.38;;;5.20;99.90;;;;;;5063454;28;20560;-85
2021/11/30 11:44:47;;;;;;;3.15;1.23;;;5.20;99.90;;;;;;5062712;28;20260;-85
2021/11/30 11:47:16;;;;;;;3.05;1.25;;;5.10;99.90;;;;;;5060913;28;20220;-85
2021/11/30 11:49:45;;;;;;;2.80;1.10;;;5.50;99.90;;;;;;5062137;28;20206;-85
2021/11/30 11:52:26;;;;;;;3.78;1.10;;;5.40;99.90;;;;;;5060595;28;20305;-86
2021/11/30 11:55:03;;;;;;;3.10;1.20;;;5.40;99.90;;;;;;5061357;28;20276;-84
2021/11/30 11:57:31;;;;;;;3.15;0.80;;;5.40;99.90;;;;;;5062566;28;20201;-85
2021/11/30 12:00:15;;;;;;;3.03;1.13;;;5.30;99.90;;;;;;5066670;28;20207;-85
2021/11/30 12:02:50;;;;;;;3.08;1.00;;;5.40;99.90;;;;;;5075519;28;20190;-84
2021/11/30 12:05:16;;;;;;;3.45;1.23;;;5.40;99.90;;;;;;5075140;28;20285;-84
2021/11/30 12:08:01;;;;;;;3.35;1.10;;;5.20;99.90;;;;;;5070600;28;20194;-84
2021/11/30 12:10:29;;;;;;;3.00;1.20;;;5.20;99.90;;;;;;5075902;28;20218;-84
2021/11/30 12:12:57;;;;;;;2.85;0.90;;;5.40;99.90;;;;;;5065576;28;20236;-84
2021/11/30 12:15:25;;;;;;;3.13;1.23;;;5.20;99.90;;;;;;5064753;28;20226;-84
2021/11/30 12:17:52;;;;;;;3.00;1.25;;;5.50;99.90;;;;;;5070426;28;20233;-84
2021/11/30 12:20:19;;;;;;;3.40;1.40;;;5.40;99.90;;;;;;5071125;28;20232;-85
2021/11/30 12:22:50;;;;;;;2.67;0.90;;;5.50;99.90;;;;;;5064218;28;20265;-84
2021/11/30 12:25:47;;;;;;;3.05;1.45;;;5.40;99.90;;;;;;5075369;28;20217;-80
2021/11/30 12:28:33;;;;;;;5.07;1.40;;;5.30;99.90;;;;;;5071752;28;20254;-79
2021/11/30 12:31:01;;;;;;;3.40;1.30;;;5.60;99.90;;;;;;5072107;28;20190;-83
2021/11/30 12:33:31;;;;;;;4.10;1.30;;;5.40;99.90;;;;;;5068591;28;20297;-80
2021/11/30 12:36:03;;;;;;;3.63;1.40;;;5.30;99.90;;;;;;5066237;28;20230;-83
2021/11/30 12:38:33;;;;;;;2.97;1.20;;;5.30;99.90;;;;;;5067549;28;20194;-78
2021/11/30 12:41:22;;;;;;;3.13;1.25;;;5.30;99.90;;;;;;5060991;28;20670;-82
2021/11/30 12:43:51;;;;;;;5.53;2.08;;;5.30;99.90;;;;;;5059881;28;20209;-80
2021/11/30 12:46:30;;;;;;;6.07;1.63;;;5.50;99.90;;;;;;5057736;28;20234;-81
2021/11/30 12:48:57;;;;;;;3.80;1.67;;;5.30;99.90;;;;;;5059355;28;20518;-83
2021/11/30 12:51:28;;;;;;;6.50;1.40;;;5.50;99.90;;;;;;5062553;28;20323;-84
2021/11/30 12:53:57;;;;;;;3.80;1.90;;;5.50;99.90;;;;;;5063818;28;20199;-83
2021/11/30 12:56:47;;;;;;;2.70;1.00;;;5.50;99.90;;;;;;5063159;28;20307;-83
2021/11/30 12:59:48;;;;;;;3.33;1.60;;;5.40;99.90;;;;;;5063941;28;20217;-83
2021/11/30 13:02:20;;;;;;;4.38;1.85;;;5.40;99.90;;;;;;5060894;28;20194;-83
2021/11/30 13:04:49;;;;;;;5.95;2.03;;;5.50;99.90;;;;;;5061302;28;20674;-83
2021/11/30 13:07:17;;;;;;;2.75;1.10;;;5.40;99.90;;;;;;5061526;28;20226;-83
2021/11/30 13:09:45;;;;;;;4.15;1.15;;;5.20;99.90;;;;;;5061329;28;20202;-84
2021/11/30 13:12:16;;;;;;;3.00;1.02;;;5.40;99.90;;;;;;5060702;28;20338;-83
2021/11/30 13:14:45;;;;;;;4.00;2.15;;;5.30;99.90;;;;;;5060213;28;20194;-82